sensor_id;sensor_type;location;lat;lon;timestamp;pressure;altitude;pressure_sealevel;temperature;humidity
46944;BME280;32678;43.852;25.952;2024-01-27T00:04:21;101667.13;;;3.28;86.18
46944;BME280;32678;43.852;25.952;2024-01-27T00:09:18;101671.50;;;3.32;85.74
46944;BME280;32678;43.852;25.952;2024-01-27T00:14:15;101675.94;;;3.42;84.79
46944;BME280;32678;43.852;25.952;2024-01-27T00:19:12;101679.53;;;3.55;84.39
46944;BME280;32678;43.852;25.952;2024-01-27T00:24:09;101681.53;;;3.82;83.11
46944;BME280;32678;43.852;25.952;2024-01-27T00:29:05;101676.09;;;3.55;83.65
46944;BME280;32678;43.852;25.952;2024-01-27T00:34:02;101671.59;;;3.37;84.17
46944;BME280;32678;43.852;25.952;2024-01-27T00:38:59;101652.44;;;3.26;84.54
46944;BME280;32678;43.852;25.952;2024-01-27T00:43:56;101639.44;;;3.21;85.17
46944;BME280;32678;43.852;25.952;2024-01-27T00:48:52;101641.38;;;3.40;85.13
46944;BME280;32678;43.852;25.952;2024-01-27T00:53:49;101635.41;;;3.52;85.04
46944;BME280;32678;43.852;25.952;2024-01-27T00:58:46;101621.38;;;3.27;85.04
46944;BME280;32678;43.852;25.952;2024-01-27T01:03:43;101610.00;;;3.18;85.63
46944;BME280;32678;43.852;25.952;2024-01-27T01:08:39;101608.06;;;2.98;86.22
46944;BME280;32678;43.852;25.952;2024-01-27T01:13:36;101592.47;;;2.92;85.99
46944;BME280;32678;43.852;25.952;2024-01-27T01:18:33;101593.97;;;2.75;86.77
46944;BME280;32678;43.852;25.952;2024-01-27T01:23:30;101585.63;;;2.99;85.83
46944;BME280;32678;43.852;25.952;2024-01-27T01:28:27;101582.00;;;2.82;87.13
46944;BME280;32678;43.852;25.952;2024-01-27T01:33:24;101573.38;;;2.83;87.45
46944;BME280;32678;43.852;25.952;2024-01-27T01:38:21;101582.25;;;3.04;86.54
46944;BME280;32678;43.852;25.952;2024-01-27T01:43:18;101579.56;;;2.98;86.75
46944;BME280;32678;43.852;25.952;2024-01-27T01:48:14;101585.66;;;3.00;86.75
46944;BME280;32678;43.852;25.952;2024-01-27T01:53:11;101585.75;;;3.10;85.52
46944;BME280;32678;43.852;25.952;2024-01-27T01:58:09;101590.72;;;2.91;86.98
46944;BME280;32678;43.852;25.952;2024-01-27T02:03:09;101591.69;;;2.99;87.06
46944;BME280;32678;43.852;25.952;2024-01-27T02:08:06;101580.66;;;3.17;86.83
46944;BME280;32678;43.852;25.952;2024-01-27T02:13:04;101571.25;;;3.27;85.71
46944;BME280;32678;43.852;25.952;2024-01-27T02:18:13;101566.81;;;3.18;86.26
46944;BME280;32678;43.852;25.952;2024-01-27T02:23:10;101563.25;;;3.05;87.06
46944;BME280;32678;43.852;25.952;2024-01-27T02:28:07;101561.66;;;3.18;86.15
46944;BME280;32678;43.852;25.952;2024-01-27T02:33:04;101556.50;;;3.23;85.66
46944;BME280;32678;43.852;25.952;2024-01-27T02:38:01;101557.38;;;3.22;85.92
46944;BME280;32678;43.852;25.952;2024-01-27T02:42:58;101554.06;;;3.36;85.17
46944;BME280;32678;43.852;25.952;2024-01-27T02:47:55;101536.03;;;3.53;84.36
46944;BME280;32678;43.852;25.952;2024-01-27T02:52:52;101532.44;;;3.34;84.27
46944;BME280;32678;43.852;25.952;2024-01-27T02:57:48;101540.31;;;3.48;83.29
46944;BME280;32678;43.852;25.952;2024-01-27T03:02:45;101530.94;;;3.64;83.25
46944;BME280;32678;43.852;25.952;2024-01-27T03:07:42;101534.56;;;3.81;82.27
46944;BME280;32678;43.852;25.952;2024-01-27T03:12:38;101524.09;;;3.72;81.32
46944;BME280;32678;43.852;25.952;2024-01-27T03:17:35;101507.63;;;3.65;81.62
46944;BME280;32678;43.852;25.952;2024-01-27T03:22:32;101465.16;;;3.49;82.06
46944;BME280;32678;43.852;25.952;2024-01-27T03:27:29;101460.16;;;3.77;80.98
46944;BME280;32678;43.852;25.952;2024-01-27T03:32:26;101478.25;;;3.68;81.42
46944;BME280;32678;43.852;25.952;2024-01-27T03:37:23;101501.00;;;4.10;79.58
46944;BME280;32678;43.852;25.952;2024-01-27T03:42:19;101507.16;;;4.30;79.61
46944;BME280;32678;43.852;25.952;2024-01-27T03:47:17;101499.34;;;4.28;80.77
46944;BME280;32678;43.852;25.952;2024-01-27T03:52:13;101492.41;;;4.23;79.90
46944;BME280;32678;43.852;25.952;2024-01-27T03:57:10;101461.16;;;3.96;79.53
46944;BME280;32678;43.852;25.952;2024-01-27T04:02:07;101474.06;;;3.92;79.56
46944;BME280;32678;43.852;25.952;2024-01-27T04:07:04;101467.03;;;3.69;80.84
46944;BME280;32678;43.852;25.952;2024-01-27T04:12:01;101448.03;;;3.74;80.21
46944;BME280;32678;43.852;25.952;2024-01-27T04:16:57;101444.69;;;3.97;79.16
46944;BME280;32678;43.852;25.952;2024-01-27T04:21:54;101428.22;;;3.84;79.21
46944;BME280;32678;43.852;25.952;2024-01-27T04:26:51;101432.41;;;3.67;80.04
46944;BME280;32678;43.852;25.952;2024-01-27T04:31:48;101423.94;;;3.95;78.62
46944;BME280;32678;43.852;25.952;2024-01-27T04:36:44;101431.63;;;3.81;78.87
46944;BME280;32678;43.852;25.952;2024-01-27T04:41:41;101422.25;;;4.03;78.50
46944;BME280;32678;43.852;25.952;2024-01-27T04:46:39;101424.81;;;4.02;78.56
46944;BME280;32678;43.852;25.952;2024-01-27T04:51:35;101424.09;;;4.33;77.19
46944;BME280;32678;43.852;25.952;2024-01-27T04:56:32;101432.75;;;4.41;76.70
46944;BME280;32678;43.852;25.952;2024-01-27T05:01:29;101430.13;;;4.30;76.41
46944;BME280;32678;43.852;25.952;2024-01-27T05:06:26;101429.31;;;4.39;76.14
46944;BME280;32678;43.852;25.952;2024-01-27T05:11:28;101424.03;;;4.16;76.54
46944;BME280;32678;43.852;25.952;2024-01-27T05:16:24;101427.53;;;4.35;75.99
46944;BME280;32678;43.852;25.952;2024-01-27T05:21:21;101428.41;;;4.25;76.17
46944;BME280;32678;43.852;25.952;2024-01-27T05:26:18;101409.44;;;4.49;75.93
46944;BME280;32678;43.852;25.952;2024-01-27T05:31:15;101415.47;;;4.51;75.59
46944;BME280;32678;43.852;25.952;2024-01-27T05:36:12;101418.09;;;4.45;76.01
46944;BME280;32678;43.852;25.952;2024-01-27T05:41:08;101413.78;;;4.68;75.56
46944;BME280;32678;43.852;25.952;2024-01-27T05:46:06;101418.97;;;4.66;75.90
46944;BME280;32678;43.852;25.952;2024-01-27T05:51:04;101421.59;;;5.06;74.54
46944;BME280;32678;43.852;25.952;2024-01-27T05:56:01;101418.13;;;5.08;74.36
46944;BME280;32678;43.852;25.952;2024-01-27T06:00:58;101427.66;;;5.14;74.63
46944;BME280;32678;43.852;25.952;2024-01-27T06:05:55;101436.34;;;5.05;75.33
46944;BME280;32678;43.852;25.952;2024-01-27T06:10:52;101444.09;;;4.75;76.00
46944;BME280;32678;43.852;25.952;2024-01-27T06:15:48;101435.44;;;4.90;75.17
46944;BME280;32678;43.852;25.952;2024-01-27T06:20:45;101432.88;;;4.96;75.06
46944;BME280;32678;43.852;25.952;2024-01-27T06:25:43;101432.88;;;4.93;76.14
46944;BME280;32678;43.852;25.952;2024-01-27T06:30:39;101441.53;;;4.96;76.33
46944;BME280;32678;43.852;25.952;2024-01-27T06:35:36;101450.19;;;4.88;76.94
46944;BME280;32678;43.852;25.952;2024-01-27T06:40:32;101446.72;;;4.95;77.11
46944;BME280;32678;43.852;25.952;2024-01-27T06:45:30;101438.06;;;4.91;76.92
46944;BME280;32678;43.852;25.952;2024-01-27T06:50:26;101432.88;;;5.24;75.16
46944;BME280;32678;43.852;25.952;2024-01-27T06:55:23;101435.47;;;5.17;75.31
46944;BME280;32678;43.852;25.952;2024-01-27T07:00:20;101432.00;;;5.30;75.29
46944;BME280;32678;43.852;25.952;2024-01-27T07:05:17;101419.88;;;5.20;75.71
46944;BME280;32678;43.852;25.952;2024-01-27T07:10:14;101416.41;;;5.26;75.81
46944;BME280;32678;43.852;25.952;2024-01-27T07:15:11;101424.19;;;5.33;74.49
46944;BME280;32678;43.852;25.952;2024-01-27T07:20:08;101431.16;;;5.16;75.57
46944;BME280;32678;43.852;25.952;2024-01-27T07:25:06;101439.81;;;5.47;73.17
46944;BME280;32678;43.852;25.952;2024-01-27T07:30:06;101435.47;;;4.97;75.43
46944;BME280;32678;43.852;25.952;2024-01-27T07:35:05;101442.38;;;4.89;76.33
46944;BME280;32678;43.852;25.952;2024-01-27T07:40:02;101439.81;;;5.10;76.33
46944;BME280;32678;43.852;25.952;2024-01-27T07:44:59;101440.69;;;5.08;77.23
46944;BME280;32678;43.852;25.952;2024-01-27T07:49:56;101433.72;;;4.92;78.87
46944;BME280;32678;43.852;25.952;2024-01-27T07:54:53;101442.41;;;5.15;79.25
46944;BME280;32678;43.852;25.952;2024-01-27T07:59:50;101433.75;;;5.13;80.40
46944;BME280;32678;43.852;25.952;2024-01-27T08:04:47;101446.72;;;5.08;81.79
46944;BME280;32678;43.852;25.952;2024-01-27T08:09:44;101445.00;;;5.04;83.56
46944;BME280;32678;43.852;25.952;2024-01-27T08:14:41;101458.00;;;5.19;83.88
46944;BME280;32678;43.852;25.952;2024-01-27T08:19:37;101466.66;;;5.14;84.25
46944;BME280;32678;43.852;25.952;2024-01-27T08:24:35;101459.75;;;5.27;84.19
46944;BME280;32678;43.852;25.952;2024-01-27T08:29:31;101463.22;;;5.42;85.23
46944;BME280;32678;43.852;25.952;2024-01-27T08:34:29;101458.00;;;5.42;85.53
46944;BME280;32678;43.852;25.952;2024-01-27T08:39:25;101464.91;;;5.49;86.48
46944;BME280;32678;43.852;25.952;2024-01-27T08:44:23;101464.91;;;5.63;86.84
46944;BME280;32678;43.852;25.952;2024-01-27T08:49:19;101465.78;;;5.66;87.58
46944;BME280;32678;43.852;25.952;2024-01-27T08:54:16;101464.00;;;5.78;87.18
46944;BME280;32678;43.852;25.952;2024-01-27T08:59:13;101465.75;;;5.70;87.84
46944;BME280;32678;43.852;25.952;2024-01-27T09:04:10;101464.88;;;5.89;87.46
46944;BME280;32678;43.852;25.952;2024-01-27T09:09:07;101457.94;;;5.95;87.51
46944;BME280;32678;43.852;25.952;2024-01-27T09:14:04;101464.00;;;5.88;87.49
46944;BME280;32678;43.852;25.952;2024-01-27T09:19:03;101468.34;;;5.79;87.99
46944;BME280;32678;43.852;25.952;2024-01-27T09:24:00;101479.59;;;5.82;88.89
46944;BME280;32678;43.852;25.952;2024-01-27T09:28:58;101479.63;;;5.68;88.94
46944;BME280;32678;43.852;25.952;2024-01-27T09:33:54;101474.44;;;5.70;88.94
46944;BME280;32678;43.852;25.952;2024-01-27T09:38:52;101477.06;;;5.56;89.10
46944;BME280;32678;43.852;25.952;2024-01-27T09:43:50;101486.56;;;5.79;88.35
46944;BME280;32678;43.852;25.952;2024-01-27T09:48:48;101490.88;;;5.98;87.23
46944;BME280;32678;43.852;25.952;2024-01-27T09:53:46;101490.91;;;5.99;86.81
46944;BME280;32678;43.852;25.952;2024-01-27T09:58:42;101493.47;;;6.04;85.94
46944;BME280;32678;43.852;25.952;2024-01-27T10:03:41;101500.41;;;6.02;86.43
46944;BME280;32678;43.852;25.952;2024-01-27T10:08:39;101508.13;;;6.38;85.21
46944;BME280;32678;43.852;25.952;2024-01-27T10:13:35;101508.13;;;6.38;84.39
46944;BME280;32678;43.852;25.952;2024-01-27T10:18:32;101508.06;;;6.52;84.14
46944;BME280;32678;43.852;25.952;2024-01-27T10:23:30;101521.06;;;6.57;83.82
46944;BME280;32678;43.852;25.952;2024-01-27T10:28:27;101520.19;;;6.62;83.51
46944;BME280;32678;43.852;25.952;2024-01-27T10:33:39;101511.44;;;6.72;83.60
46944;BME280;32678;43.852;25.952;2024-01-27T10:38:37;101513.97;;;6.84;82.99
46944;BME280;32678;43.852;25.952;2024-01-27T10:43:34;101512.19;;;6.92;82.69
46944;BME280;32678;43.852;25.952;2024-01-27T10:48:33;101516.56;;;6.89;82.49
46944;BME280;32678;43.852;25.952;2024-01-27T10:53:31;101506.13;;;6.92;81.67
46944;BME280;32678;43.852;25.952;2024-01-27T10:58:31;101506.97;;;6.97;81.48
46944;BME280;32678;43.852;25.952;2024-01-27T11:03:31;101498.44;;;6.66;80.62
46944;BME280;32678;43.852;25.952;2024-01-27T11:08:29;101493.44;;;6.25;81.48
46944;BME280;32678;43.852;25.952;2024-01-27T11:13:26;101500.44;;;5.87;84.95
46944;BME280;32678;43.852;25.952;2024-01-27T11:18:24;101525.59;;;5.97;85.58
46944;BME280;32678;43.852;25.952;2024-01-27T11:23:20;101522.13;;;5.99;85.88
46944;BME280;32678;43.852;25.952;2024-01-27T11:28:27;101551.56;;;6.35;84.41
46944;BME280;32678;43.852;25.952;2024-01-27T11:33:25;101549.78;;;6.44;84.62
46944;BME280;32678;43.852;25.952;2024-01-27T11:38:21;101544.44;;;6.73;83.20
46944;BME280;32678;43.852;25.952;2024-01-27T11:43:18;101545.31;;;6.78;82.19
46944;BME280;32678;43.852;25.952;2024-01-27T11:48:15;101550.59;;;6.51;81.88
46944;BME280;32678;43.852;25.952;2024-01-27T11:53:12;101562.66;;;6.78;81.51
46944;BME280;32678;43.852;25.952;2024-01-27T11:58:08;101562.59;;;6.90;80.76
46944;BME280;32678;43.852;25.952;2024-01-27T12:03:05;101580.91;;;6.84;81.39
46944;BME280;32678;43.852;25.952;2024-01-27T12:08:02;101580.81;;;7.04;79.89
46944;BME280;32678;43.852;25.952;2024-01-27T12:12:59;101573.78;;;7.12;78.42
46944;BME280;32678;43.852;25.952;2024-01-27T12:17:56;101588.56;;;7.13;77.94
46944;BME280;32678;43.852;25.952;2024-01-27T12:23:01;101586.75;;;7.24;77.54
46944;BME280;32678;43.852;25.952;2024-01-27T12:28:02;101595.53;;;7.12;78.18
46944;BME280;32678;43.852;25.952;2024-01-27T12:32:58;101600.75;;;7.12;78.39
46944;BME280;32678;43.852;25.952;2024-01-27T12:37:55;101612.81;;;7.25;76.89
46944;BME280;32678;43.852;25.952;2024-01-27T12:42:52;101615.44;;;7.27;76.65
46944;BME280;32678;43.852;25.952;2024-01-27T12:47:50;101614.66;;;7.08;76.47
46944;BME280;32678;43.852;25.952;2024-01-27T12:52:47;101624.09;;;7.29;76.25
46944;BME280;32678;43.852;25.952;2024-01-27T12:57:44;101630.16;;;7.35;75.97
46944;BME280;32678;43.852;25.952;2024-01-27T13:02:41;101641.44;;;7.40;76.15
46944;BME280;32678;43.852;25.952;2024-01-27T13:07:38;101635.38;;;7.35;75.23
46944;BME280;32678;43.852;25.952;2024-01-27T13:12:35;101646.69;;;7.37;74.84
46944;BME280;32678;43.852;25.952;2024-01-27T13:17:32;101644.91;;;7.41;74.50
46944;BME280;32678;43.852;25.952;2024-01-27T13:22:28;101657.06;;;7.47;74.41
46944;BME280;32678;43.852;25.952;2024-01-27T13:27:26;101652.81;;;7.27;74.88
46944;BME280;32678;43.852;25.952;2024-01-27T13:32:25;101653.59;;;7.42;75.17
46944;BME280;32678;43.852;25.952;2024-01-27T13:37:22;101648.34;;;7.51;74.78
46944;BME280;32678;43.852;25.952;2024-01-27T13:42:18;101645.75;;;7.43;74.48
46944;BME280;32678;43.852;25.952;2024-01-27T13:47:16;101650.19;;;7.32;74.83
46944;BME280;32678;43.852;25.952;2024-01-27T13:52:12;101659.03;;;7.04;75.91
46944;BME280;32678;43.852;25.952;2024-01-27T13:57:09;101673.78;;;7.03;76.29
46944;BME280;32678;43.852;25.952;2024-01-27T14:02:09;101680.69;;;7.09;76.41
46944;BME280;32678;43.852;25.952;2024-01-27T14:07:06;101684.16;;;7.17;75.69
46944;BME280;32678;43.852;25.952;2024-01-27T14:12:05;101684.16;;;7.14;76.01
46944;BME280;32678;43.852;25.952;2024-01-27T14:17:02;101697.22;;;7.12;76.79
46944;BME280;32678;43.852;25.952;2024-01-27T14:21:59;101692.03;;;7.00;77.32
46944;BME280;32678;43.852;25.952;2024-01-27T14:26:56;101679.00;;;7.08;77.76
46944;BME280;32678;43.852;25.952;2024-01-27T14:31:53;101677.28;;;6.97;78.76
46944;BME280;32678;43.852;25.952;2024-01-27T14:36:51;101677.25;;;7.07;79.06
46944;BME280;32678;43.852;25.952;2024-01-27T14:41:48;101679.88;;;7.01;78.60
46944;BME280;32678;43.852;25.952;2024-01-27T14:46:45;101685.94;;;7.04;78.71
46944;BME280;32678;43.852;25.952;2024-01-27T14:51:42;101692.91;;;7.01;78.34
46944;BME280;32678;43.852;25.952;2024-01-27T14:56:39;101685.09;;;6.94;78.54
46944;BME280;32678;43.852;25.952;2024-01-27T15:01:35;101689.47;;;6.85;78.24
46944;BME280;32678;43.852;25.952;2024-01-27T15:06:33;101692.06;;;6.94;77.89
46944;BME280;32678;43.852;25.952;2024-01-27T15:11:29;101691.13;;;7.10;76.59
46944;BME280;32678;43.852;25.952;2024-01-27T15:16:26;101687.63;;;7.19;76.43
46944;BME280;32678;43.852;25.952;2024-01-27T15:21:24;101696.41;;;6.96;76.75
46944;BME280;32678;43.852;25.952;2024-01-27T15:26:26;101695.53;;;6.96;76.88
46944;BME280;32678;43.852;25.952;2024-01-27T15:31:22;101712.09;;;6.81;77.43
46944;BME280;32678;43.852;25.952;2024-01-27T15:36:19;101702.50;;;6.85;77.04
46944;BME280;32678;43.852;25.952;2024-01-27T15:41:15;101731.19;;;6.86;77.39
46944;BME280;32678;43.852;25.952;2024-01-27T15:46:15;101738.09;;;7.04;77.09
46944;BME280;32678;43.852;25.952;2024-01-27T15:51:12;101750.19;;;7.26;76.68
46944;BME280;32678;43.852;25.952;2024-01-27T15:56:09;101753.66;;;7.33;76.27
46944;BME280;32678;43.852;25.952;2024-01-27T16:01:05;101762.41;;;7.09;76.68
46944;BME280;32678;43.852;25.952;2024-01-27T16:06:03;101769.34;;;7.19;76.38
46944;BME280;32678;43.852;25.952;2024-01-27T16:11:01;101772.78;;;7.30;76.36
46944;BME280;32678;43.852;25.952;2024-01-27T16:15:58;101784.03;;;7.43;76.01
46944;BME280;32678;43.852;25.952;2024-01-27T16:20:56;101800.59;;;7.42;75.60
46944;BME280;32678;43.852;25.952;2024-01-27T16:25:53;101800.59;;;7.36;75.61
46944;BME280;32678;43.852;25.952;2024-01-27T16:30:50;101804.94;;;7.34;75.38
46944;BME280;32678;43.852;25.952;2024-01-27T16:35:47;101812.75;;;7.34;75.56
46944;BME280;32678;43.852;25.952;2024-01-27T16:40:43;101811.88;;;7.41;75.49
46944;BME280;32678;43.852;25.952;2024-01-27T16:45:43;101806.69;;;7.29;75.73
46944;BME280;32678;43.852;25.952;2024-01-27T16:50:39;101813.69;;;7.15;75.88
46944;BME280;32678;43.852;25.952;2024-01-27T16:55:38;101824.97;;;7.20;76.06
46944;BME280;32678;43.852;25.952;2024-01-27T17:00:38;101844.97;;;7.24;75.95
46944;BME280;32678;43.852;25.952;2024-01-27T17:05:36;101858.00;;;7.31;75.78
46944;BME280;32678;43.852;25.952;2024-01-27T17:10:33;101860.59;;;7.34;75.70
46944;BME280;32678;43.852;25.952;2024-01-27T17:15:29;101864.09;;;7.36;75.57
46944;BME280;32678;43.852;25.952;2024-01-27T17:20:29;101878.88;;;7.36;75.15
46944;BME280;32678;43.852;25.952;2024-01-27T17:25:26;101882.34;;;7.14;75.52
46944;BME280;32678;43.852;25.952;2024-01-27T17:30:23;101885.88;;;6.78;77.25
46944;BME280;32678;43.852;25.952;2024-01-27T17:35:20;101902.34;;;6.62;78.67
46944;BME280;32678;43.852;25.952;2024-01-27T17:40:17;101900.56;;;6.45;79.87
46944;BME280;32678;43.852;25.952;2024-01-27T17:45:17;101898.81;;;6.29;80.93
46944;BME280;32678;43.852;25.952;2024-01-27T17:50:14;101914.47;;;6.44;80.93
46944;BME280;32678;43.852;25.952;2024-01-27T17:55:11;101914.50;;;6.63;79.72
46944;BME280;32678;43.852;25.952;2024-01-27T18:00:12;101930.09;;;6.47;80.37
46944;BME280;32678;43.852;25.952;2024-01-27T18:05:09;101935.25;;;6.31;80.89
46944;BME280;32678;43.852;25.952;2024-01-27T18:10:06;101951.75;;;6.24;80.89
46944;BME280;32678;43.852;25.952;2024-01-27T18:15:04;101955.22;;;6.23;80.97
46944;BME280;32678;43.852;25.952;2024-01-27T18:20:01;101953.38;;;6.03;82.04
46944;BME280;32678;43.852;25.952;2024-01-27T18:24:58;101948.03;;;5.81;83.59
46944;BME280;32678;43.852;25.952;2024-01-27T18:29:55;101952.22;;;5.59;85.02
46944;BME280;32678;43.852;25.952;2024-01-27T18:34:51;101955.72;;;5.62;84.99
46944;BME280;32678;43.852;25.952;2024-01-27T18:39:49;101961.78;;;5.60;85.02
46944;BME280;32678;43.852;25.952;2024-01-27T18:44:46;101979.81;;;5.34;84.92
46944;BME280;32678;43.852;25.952;2024-01-27T18:49:43;101984.75;;;5.02;86.11
46944;BME280;32678;43.852;25.952;2024-01-27T18:54:40;101982.09;;;4.98;86.50
46944;BME280;32678;43.852;25.952;2024-01-27T18:59:38;101993.16;;;4.80;87.51
46944;BME280;32678;43.852;25.952;2024-01-27T19:04:35;101994.88;;;4.79;87.57
46944;BME280;32678;43.852;25.952;2024-01-27T19:09:31;102000.94;;;4.77;88.00
46944;BME280;32678;43.852;25.952;2024-01-27T19:14:28;102012.31;;;4.88;87.75
46944;BME280;32678;43.852;25.952;2024-01-27T19:19:25;102023.78;;;5.07;86.57
46944;BME280;32678;43.852;25.952;2024-01-27T19:24:25;102041.22;;;5.20;84.14
46944;BME280;32678;43.852;25.952;2024-01-27T19:29:21;102033.06;;;4.85;85.43
46944;BME280;32678;43.852;25.952;2024-01-27T19:34:18;102046.88;;;4.81;85.17
46944;BME280;32678;43.852;25.952;2024-01-27T19:39:15;102062.41;;;4.73;83.20
46944;BME280;32678;43.852;25.952;2024-01-27T19:44:12;102070.19;;;4.73;79.74
46944;BME280;32678;43.852;25.952;2024-01-27T19:49:09;102093.25;;;4.51;74.65
46944;BME280;32678;43.852;25.952;2024-01-27T19:54:06;102099.56;;;4.05;74.62
46944;BME280;32678;43.852;25.952;2024-01-27T19:59:02;102105.84;;;4.22;72.85
46944;BME280;32678;43.852;25.952;2024-01-27T20:04:00;102101.00;;;4.46;69.78
46944;BME280;32678;43.852;25.952;2024-01-27T20:08:56;102102.59;;;4.36;70.20
46944;BME280;32678;43.852;25.952;2024-01-27T20:14:07;102102.84;;;4.55;69.12
46944;BME280;32678;43.852;25.952;2024-01-27T20:19:08;102093.59;;;4.76;67.25
46944;BME280;32678;43.852;25.952;2024-01-27T20:24:05;102104.72;;;4.66;69.66
46944;BME280;32678;43.852;25.952;2024-01-27T20:29:02;102111.28;;;5.06;69.42
46944;BME280;32678;43.852;25.952;2024-01-27T20:34:00;102118.44;;;5.29;67.49
46944;BME280;32678;43.852;25.952;2024-01-27T20:38:58;102119.16;;;5.14;67.27
46944;BME280;32678;43.852;25.952;2024-01-27T20:43:54;102120.00;;;5.11;67.54
46944;BME280;32678;43.852;25.952;2024-01-27T20:48:51;102124.31;;;5.08;67.78
46944;BME280;32678;43.852;25.952;2024-01-27T20:53:50;102126.88;;;5.09;68.06
46944;BME280;32678;43.852;25.952;2024-01-27T20:58:47;102134.00;;;5.22;67.33
46944;BME280;32678;43.852;25.952;2024-01-27T21:03:44;102128.50;;;4.97;67.79
46944;BME280;32678;43.852;25.952;2024-01-27T21:08:41;102121.53;;;4.96;67.70
46944;BME280;32678;43.852;25.952;2024-01-27T21:13:38;102134.56;;;4.99;67.41
46944;BME280;32678;43.852;25.952;2024-01-27T21:18:36;102136.31;;;4.98;67.51
46944;BME280;32678;43.852;25.952;2024-01-27T21:23:32;102149.97;;;4.82;68.83
46944;BME280;32678;43.852;25.952;2024-01-27T21:28:30;102153.47;;;4.86;68.66
46944;BME280;32678;43.852;25.952;2024-01-27T21:33:26;102155.03;;;4.74;68.93
46944;BME280;32678;43.852;25.952;2024-01-27T21:38:24;102152.44;;;4.73;69.31
46944;BME280;32678;43.852;25.952;2024-01-27T21:43:21;102162.06;;;4.80;69.46
46944;BME280;32678;43.852;25.952;2024-01-27T21:48:17;102172.25;;;4.65;69.69
46944;BME280;32678;43.852;25.952;2024-01-27T21:53:14;102164.19;;;4.47;70.71
46944;BME280;32678;43.852;25.952;2024-01-27T21:58:11;102175.06;;;4.20;72.31
46944;BME280;32678;43.852;25.952;2024-01-27T22:03:08;102177.06;;;3.86;73.92
46944;BME280;32678;43.852;25.952;2024-01-27T22:08:05;102185.97;;;3.99;74.42
46944;BME280;32678;43.852;25.952;2024-01-27T22:13:03;102180.94;;;4.11;74.39
46944;BME280;32678;43.852;25.952;2024-01-27T22:18:00;102186.00;;;4.01;75.44
46944;BME280;32678;43.852;25.952;2024-01-27T22:22:57;102178.16;;;3.49;77.14
46944;BME280;32678;43.852;25.952;2024-01-27T22:27:53;102168.28;;;3.30;78.93
46944;BME280;32678;43.852;25.952;2024-01-27T22:32:50;102157.66;;;3.17;79.13
46944;BME280;32678;43.852;25.952;2024-01-27T22:37:48;102173.47;;;3.30;78.73
46944;BME280;32678;43.852;25.952;2024-01-27T22:42:45;102185.22;;;3.57;78.13
46944;BME280;32678;43.852;25.952;2024-01-27T22:47:41;102194.41;;;3.87;76.85
46944;BME280;32678;43.852;25.952;2024-01-27T22:52:38;102215.19;;;3.89;77.33
46944;BME280;32678;43.852;25.952;2024-01-27T22:57:35;102217.63;;;3.81;77.41
46944;BME280;32678;43.852;25.952;2024-01-27T23:02:33;102222.78;;;3.78;76.38
46944;BME280;32678;43.852;25.952;2024-01-27T23:07:29;102213.81;;;4.09;74.94
46944;BME280;32678;43.852;25.952;2024-01-27T23:12:27;102212.53;;;3.84;75.91
46944;BME280;32678;43.852;25.952;2024-01-27T23:17:24;102223.91;;;3.92;75.82
46944;BME280;32678;43.852;25.952;2024-01-27T23:22:21;102216.34;;;4.05;75.75
46944;BME280;32678;43.852;25.952;2024-01-27T23:27:17;102210.38;;;4.12;75.99
46944;BME280;32678;43.852;25.952;2024-01-27T23:32:14;102214.34;;;3.91;76.49
46944;BME280;32678;43.852;25.952;2024-01-27T23:37:12;102217.00;;;3.93;77.02
46944;BME280;32678;43.852;25.952;2024-01-27T23:42:09;102224.84;;;3.98;77.48
46944;BME280;32678;43.852;25.952;2024-01-27T23:47:06;102218.94;;;4.06;77.45
46944;BME280;32678;43.852;25.952;2024-01-27T23:52:03;102239.63;;;4.02;77.58
46944;BME280;32678;43.852;25.952;2024-01-27T23:57:06;102231.69;;;3.92;78.32
